Time;durP1;ratioP1;P1;durP2;ratioP2;P2;SDS_P1;SDS_P2;PMS_P1;PMS_P2;Temp;Humidity;BMP_temperature;BMP_pressure;BME280_temperature;BME280_humidity;BME280_pressure;Samples;Min_cycle;Max_cycle;Signal;HPM_P1;HPM_P2
2023/12/24 00:01:06;;;;;;;2.40;1.85;;;;;;;;;;6361059;22;20025;-75
2023/12/24 00:03:33;;;;;;;3.95;1.52;;;;;;;;;;6389709;22;20009;-75
2023/12/24 00:05:58;;;;;;;4.90;1.60;;;;;;;;;;6389910;22;20010;-75
2023/12/24 00:08:24;;;;;;;1.63;1.33;;;;;;;;;;6389845;22;19989;-76
2023/12/24 00:10:49;;;;;;;2.50;1.20;;;;;;;;;;6361271;22;20006;-76
2023/12/24 00:13:14;;;;;;;3.50;1.27;;;;;;;;;;6360938;22;20013;-75
2023/12/24 00:15:40;;;;;;;2.53;0.95;;;;;;;;;;6389679;22;20014;-76
2023/12/24 00:18:05;;;;;;;5.63;1.17;;;;;;;;;;6361283;22;19998;-75
2023/12/24 00:20:30;;;;;;;3.13;1.10;;;;;;;;;;6361988;22;20005;-76
2023/12/24 00:23:06;;;;;;;1.30;1.10;;;;;;;;;;6389793;22;20021;-76
2023/12/24 00:25:31;;;;;;;3.03;1.10;;;;;;;;;;6361654;22;20013;-76
2023/12/24 00:27:58;;;;;;;2.97;1.00;;;;;;;;;;6389854;22;20113;-76
2023/12/24 00:30:26;;;;;;;2.95;0.98;;;;;;;;;;6389730;22;20006;-75
2023/12/24 00:32:55;;;;;;;2.78;1.25;;;;;;;;;;6360767;22;20005;-75
2023/12/24 00:35:20;;;;;;;3.47;0.88;;;;;;;;;;6390134;22;20021;-75
2023/12/24 00:37:47;;;;;;;2.10;1.13;;;;;;;;;;6390108;22;20033;-75
2023/12/24 00:40:12;;;;;;;3.85;1.10;;;;;;;;;;6361815;22;20088;-75
2023/12/24 00:42:39;;;;;;;2.42;1.10;;;;;;;;;;6391868;22;20040;-75
2023/12/24 00:45:05;;;;;;;3.50;1.13;;;;;;;;;;6391705;22;20002;-75
2023/12/24 00:47:31;;;;;;;1.30;1.10;;;;;;;;;;6391865;22;20017;-75
2023/12/24 00:49:56;;;;;;;5.03;1.00;;;;;;;;;;6391847;22;20010;-76
2023/12/24 00:52:21;;;;;;;2.65;1.05;;;;;;;;;;6391742;22;20141;-75
2023/12/24 00:54:47;;;;;;;2.20;1.10;;;;;;;;;;6391599;22;20038;-75
2023/12/24 00:57:13;;;;;;;3.03;1.20;;;;;;;;;;6392215;22;20017;-76
2023/12/24 00:59:38;;;;;;;2.50;1.10;;;;;;;;;;6392945;22;20001;-75
2023/12/24 01:02:03;;;;;;;2.42;1.25;;;;;;;;;;6392417;22;20010;-75
2023/12/24 01:04:29;;;;;;;2.17;1.30;;;;;;;;;;6395284;22;20010;-75
2023/12/24 01:06:54;;;;;;;3.42;1.50;;;;;;;;;;6405433;22;20025;-75
2023/12/24 01:09:20;;;;;;;1.80;1.25;;;;;;;;;;6385364;22;20013;-75
2023/12/24 01:11:45;;;;;;;4.00;2.15;;;;;;;;;;6370112;22;20110;-75
2023/12/24 01:14:10;;;;;;;3.33;1.60;;;;;;;;;;6393213;22;20016;-75
2023/12/24 01:16:40;;;;;;;3.95;1.70;;;;;;;;;;6363695;22;20021;-75
2023/12/24 01:19:05;;;;;;;3.75;1.60;;;;;;;;;;6363209;22;20021;-75
2023/12/24 01:21:30;;;;;;;3.22;1.60;;;;;;;;;;6391416;22;20070;-76
2023/12/24 01:23:56;;;;;;;3.30;1.35;;;;;;;;;;6363213;22;20002;-75
2023/12/24 01:26:21;;;;;;;3.10;1.38;;;;;;;;;;6391288;22;20054;-75
2023/12/24 01:28:46;;;;;;;2.92;1.30;;;;;;;;;;6391007;22;20101;-75
2023/12/24 01:31:12;;;;;;;2.00;1.45;;;;;;;;;;6390754;22;20037;-75
2023/12/24 01:33:37;;;;;;;1.88;1.30;;;;;;;;;;6390010;22;20041;-75
2023/12/24 01:36:02;;;;;;;2.88;1.90;;;;;;;;;;6391075;22;19997;-75
2023/12/24 01:38:28;;;;;;;5.18;1.90;;;;;;;;;;6391039;22;20386;-76
2023/12/24 01:40:53;;;;;;;3.83;1.70;;;;;;;;;;6391327;22;20014;-75
2023/12/24 01:43:18;;;;;;;3.25;1.70;;;;;;;;;;6390510;22;20009;-75
2023/12/24 01:45:44;;;;;;;2.53;1.50;;;;;;;;;;6391044;22;20014;-76
2023/12/24 01:48:14;;;;;;;3.53;1.67;;;;;;;;;;6362083;22;19998;-76
2023/12/24 01:50:39;;;;;;;4.40;1.88;;;;;;;;;;6391566;22;20028;-76
2023/12/24 01:53:05;;;;;;;6.78;2.33;;;;;;;;;;6390248;22;20014;-75
2023/12/24 01:55:31;;;;;;;5.53;1.80;;;;;;;;;;6390955;22;20403;-75
2023/12/24 01:57:56;;;;;;;6.22;1.92;;;;;;;;;;6362333;22;20469;-75
2023/12/24 02:00:22;;;;;;;2.78;2.00;;;;;;;;;;6389586;22;20110;-75
2023/12/24 02:02:49;;;;;;;3.28;1.83;;;;;;;;;;6362847;22;20439;-76
2023/12/24 02:05:14;;;;;;;6.25;2.20;;;;;;;;;;6390629;22;20017;-75
2023/12/24 02:07:41;;;;;;;2.33;1.23;;;;;;;;;;6390251;22;20029;-75
2023/12/24 02:10:07;;;;;;;3.10;1.20;;;;;;;;;;6362792;22;20002;-75
2023/12/24 02:12:35;;;;;;;3.45;1.50;;;;;;;;;;6390708;22;20032;-75
2023/12/24 02:15:00;;;;;;;2.10;1.52;;;;;;;;;;6390650;22;20005;-75
2023/12/24 02:17:27;;;;;;;3.92;1.48;;;;;;;;;;6392310;22;19994;-75
2023/12/24 02:19:53;;;;;;;1.90;1.27;;;;;;;;;;6362773;22;20407;-75
2023/12/24 02:22:18;;;;;;;1.10;1.00;;;;;;;;;;6364254;22;20752;-75
2023/12/24 02:24:44;;;;;;;3.47;1.58;;;;;;;;;;6396464;22;20457;-75
2023/12/24 02:27:24;;;;;;;3.30;1.70;;;;;;;;;;6406355;22;20352;-75
2023/12/24 02:29:52;;;;;;;4.63;1.90;;;;;;;;;;6396334;22;20528;-75
2023/12/24 02:32:19;;;;;;;2.08;1.40;;;;;;;;;;6391270;22;20014;-75
2023/12/24 02:34:47;;;;;;;2.85;1.77;;;;;;;;;;6389480;22;20025;-75
2023/12/24 02:37:14;;;;;;;5.32;1.40;;;;;;;;;;6362790;22;20026;-75
2023/12/24 02:39:41;;;;;;;2.55;1.45;;;;;;;;;;6390846;22;20021;-75
2023/12/24 02:42:07;;;;;;;2.88;1.42;;;;;;;;;;6362307;22;20407;-75
2023/12/24 02:44:35;;;;;;;6.38;1.80;;;;;;;;;;6362786;22;20433;-75
2023/12/24 02:47:01;;;;;;;2.83;1.85;;;;;;;;;;6390876;22;20017;-75
2023/12/24 02:49:26;;;;;;;3.53;2.00;;;;;;;;;;6391474;22;20009;-75
2023/12/24 02:51:52;;;;;;;4.55;1.73;;;;;;;;;;6362835;22;20010;-76
2023/12/24 02:54:17;;;;;;;3.72;1.63;;;;;;;;;;6392101;22;20092;-76
2023/12/24 02:56:42;;;;;;;4.38;1.90;;;;;;;;;;6392737;22;20029;-75
2023/12/24 02:59:08;;;;;;;2.83;1.83;;;;;;;;;;6391950;22;20010;-75
2023/12/24 03:01:33;;;;;;;3.95;1.80;;;;;;;;;;6364338;22;20078;-75
2023/12/24 03:03:59;;;;;;;4.25;1.50;;;;;;;;;;6365382;22;20002;-75
2023/12/24 03:06:24;;;;;;;4.90;1.00;;;;;;;;;;6399829;22;20028;-76
2023/12/24 03:08:50;;;;;;;3.03;1.48;;;;;;;;;;6413129;22;20051;-75
2023/12/24 03:11:15;;;;;;;4.18;1.77;;;;;;;;;;6373572;22;20010;-76
2023/12/24 03:13:40;;;;;;;3.58;1.35;;;;;;;;;;6362303;22;20009;-75
2023/12/24 03:16:06;;;;;;;3.65;1.33;;;;;;;;;;6391652;22;20018;-75
2023/12/24 03:18:31;;;;;;;2.80;1.38;;;;;;;;;;6390600;22;20018;-75
2023/12/24 03:20:57;;;;;;;3.15;1.30;;;;;;;;;;6362112;22;20531;-75
2023/12/24 03:23:22;;;;;;;5.78;1.63;;;;;;;;;;6362747;22;20030;-75
2023/12/24 03:25:48;;;;;;;6.75;1.75;;;;;;;;;;6389669;22;20032;-75
2023/12/24 03:28:13;;;;;;;6.03;2.20;;;;;;;;;;6362391;22;20017;-75
2023/12/24 03:30:39;;;;;;;3.47;1.50;;;;;;;;;;6390131;22;20024;-75
2023/12/24 03:33:04;;;;;;;5.10;1.75;;;;;;;;;;6390764;22;20005;-75
2023/12/24 03:35:29;;;;;;;4.88;2.10;;;;;;;;;;6362379;22;20030;-76
2023/12/24 03:37:55;;;;;;;4.38;1.88;;;;;;;;;;6391217;22;20033;-76
2023/12/24 03:40:20;;;;;;;7.65;2.88;;;;;;;;;;6391547;22;20014;-76
2023/12/24 03:42:45;;;;;;;5.43;2.25;;;;;;;;;;6366384;22;20017;-75
2023/12/24 03:45:11;;;;;;;8.32;2.92;;;;;;;;;;6405335;22;20020;-75
2023/12/24 03:47:36;;;;;;;9.23;2.95;;;;;;;;;;6411375;22;20002;-75
2023/12/24 03:50:02;;;;;;;7.30;2.58;;;;;;;;;;6367183;22;20498;-75
2023/12/24 03:52:27;;;;;;;11.75;3.28;;;;;;;;;;6391817;22;20017;-76
2023/12/24 03:54:53;;;;;;;10.63;2.80;;;;;;;;;;6391040;22;20811;-76
2023/12/24 03:57:18;;;;;;;10.10;2.97;;;;;;;;;;6361777;22;20009;-76
2023/12/24 03:59:44;;;;;;;6.22;2.38;;;;;;;;;;6390356;22;20009;-76
2023/12/24 04:02:09;;;;;;;10.40;3.25;;;;;;;;;;6390060;22;20097;-76
2023/12/24 04:04:34;;;;;;;7.63;2.75;;;;;;;;;;6361891;22;20013;-75
2023/12/24 04:07:00;;;;;;;11.27;3.70;;;;;;;;;;6389160;22;20122;-76
2023/12/24 04:09:26;;;;;;;8.63;3.03;;;;;;;;;;6390356;22;20555;-76
2023/12/24 04:11:51;;;;;;;9.30;3.78;;;;;;;;;;6390421;22;20033;-76
2023/12/24 04:14:17;;;;;;;11.60;2.83;;;;;;;;;;6361532;22;20724;-76
2023/12/24 04:16:42;;;;;;;23.92;6.82;;;;;;;;;;6391601;22;20063;-76
2023/12/24 04:19:08;;;;;;;10.27;3.42;;;;;;;;;;6363159;22;20695;-76
2023/12/24 04:21:33;;;;;;;6.47;2.88;;;;;;;;;;6391588;22;20781;-76
2023/12/24 04:23:59;;;;;;;11.25;3.60;;;;;;;;;;6392144;22;20001;-76
2023/12/24 04:26:25;;;;;;;4.70;2.55;;;;;;;;;;6392379;22;19993;-77
2023/12/24 04:28:51;;;;;;;11.27;3.50;;;;;;;;;;6391564;22;20106;-76
2023/12/24 04:31:17;;;;;;;10.90;4.13;;;;;;;;;;6390907;22;20021;-77
2023/12/24 04:33:42;;;;;;;8.55;3.60;;;;;;;;;;6362960;22;20009;-77
2023/12/24 04:36:08;;;;;;;15.32;4.07;;;;;;;;;;6391625;22;19994;-77
2023/12/24 04:38:33;;;;;;;9.77;3.70;;;;;;;;;;6364187;22;19998;-77
2023/12/24 04:40:59;;;;;;;10.68;3.25;;;;;;;;;;6390768;22;20022;-77
2023/12/24 04:43:25;;;;;;;7.22;3.80;;;;;;;;;;6362852;22;20010;-77
2023/12/24 04:45:50;;;;;;;9.18;3.92;;;;;;;;;;6363875;22;20016;-77
2023/12/24 04:48:16;;;;;;;13.63;3.70;;;;;;;;;;6363494;22;20013;-77
2023/12/24 04:50:41;;;;;;;8.80;3.38;;;;;;;;;;6364413;22;19997;-77
2023/12/24 04:53:06;;;;;;;14.65;3.85;;;;;;;;;;6363022;22;20069;-77
2023/12/24 04:55:32;;;;;;;12.95;4.53;;;;;;;;;;6391704;22;20449;-77
2023/12/24 04:57:57;;;;;;;9.18;4.03;;;;;;;;;;6391819;22;20110;-76
2023/12/24 05:00:22;;;;;;;9.75;3.45;;;;;;;;;;6393001;22;20918;-77
2023/12/24 05:02:48;;;;;;;11.10;3.92;;;;;;;;;;6399238;22;20077;-77
2023/12/24 05:05:14;;;;;;;10.15;3.40;;;;;;;;;;6378066;22;20018;-77
2023/12/24 05:07:40;;;;;;;10.60;2.97;;;;;;;;;;6377492;22;20038;-77
2023/12/24 05:10:06;;;;;;;14.88;4.03;;;;;;;;;;6393315;22;20029;-77
2023/12/24 05:12:33;;;;;;;11.25;3.05;;;;;;;;;;6390438;22;20029;-77
2023/12/24 05:15:02;;;;;;;10.88;3.30;;;;;;;;;;6391420;22;20286;-78
2023/12/24 05:17:27;;;;;;;13.77;3.70;;;;;;;;;;6363993;22;20002;-78
2023/12/24 05:19:53;;;;;;;9.45;2.92;;;;;;;;;;6390420;22;20070;-78
2023/12/24 05:22:20;;;;;;;8.95;2.40;;;;;;;;;;6391210;22;20029;-78
2023/12/24 05:24:45;;;;;;;8.45;2.92;;;;;;;;;;6390968;22;20024;-78
2023/12/24 05:27:10;;;;;;;5.22;2.63;;;;;;;;;;6361604;22;20010;-78
2023/12/24 05:29:36;;;;;;;8.32;3.47;;;;;;;;;;6391802;22;20002;-77
2023/12/24 05:32:02;;;;;;;6.82;3.05;;;;;;;;;;6362819;22;20459;-78
2023/12/24 05:34:27;;;;;;;7.22;2.80;;;;;;;;;;6362755;22;20010;-79
2023/12/24 05:36:52;;;;;;;7.28;3.28;;;;;;;;;;6391150;22;20038;-79
2023/12/24 05:39:18;;;;;;;8.65;3.20;;;;;;;;;;6362685;22;20006;-79
2023/12/24 05:41:44;;;;;;;8.77;2.88;;;;;;;;;;6391531;22;20005;-78
2023/12/24 05:44:10;;;;;;;6.55;2.80;;;;;;;;;;6363002;22;20010;-79
2023/12/24 05:46:35;;;;;;;6.85;2.55;;;;;;;;;;6390338;22;20041;-79
2023/12/24 05:49:01;;;;;;;10.38;3.30;;;;;;;;;;6391244;22;20014;-79
2023/12/24 05:51:27;;;;;;;8.63;3.13;;;;;;;;;;6390440;22;20093;-79
2023/12/24 05:53:52;;;;;;;11.93;2.42;;;;;;;;;;6390626;22;20374;-79
2023/12/24 05:56:17;;;;;;;7.03;3.17;;;;;;;;;;6391661;22;20202;-78
2023/12/24 05:58:43;;;;;;;10.15;3.45;;;;;;;;;;6362294;22;20014;-79
2023/12/24 06:01:08;;;;;;;6.20;3.08;;;;;;;;;;6362779;22;20018;-79
2023/12/24 06:03:34;;;;;;;12.38;3.58;;;;;;;;;;6362586;22;20118;-78
2023/12/24 06:05:59;;;;;;;9.23;3.40;;;;;;;;;;6389955;22;20077;-78
2023/12/24 06:08:24;;;;;;;7.85;3.22;;;;;;;;;;6363779;22;20034;-78
2023/12/24 06:10:50;;;;;;;8.93;2.88;;;;;;;;;;6389849;22;20005;-78
2023/12/24 06:13:15;;;;;;;14.48;4.07;;;;;;;;;;6390519;22;20021;-78
2023/12/24 06:15:41;;;;;;;10.57;3.47;;;;;;;;;;6362949;22;20089;-78
2023/12/24 06:18:07;;;;;;;13.93;3.90;;;;;;;;;;6363705;22;20082;-79
2023/12/24 06:20:33;;;;;;;10.32;3.08;;;;;;;;;;6366562;22;20021;-78
2023/12/24 06:22:59;;;;;;;5.43;2.20;;;;;;;;;;6404250;22;20033;-79
2023/12/24 06:25:25;;;;;;;11.02;3.33;;;;;;;;;;6412846;22;20001;-79
2023/12/24 06:27:50;;;;;;;8.70;2.72;;;;;;;;;;6369020;22;20010;-79
2023/12/24 06:30:16;;;;;;;9.27;3.35;;;;;;;;;;6363646;22;20061;-79
2023/12/24 06:32:46;;;;;;;18.17;3.22;;;;;;;;;;6392021;22;19997;-79
2023/12/24 06:35:11;;;;;;;10.15;2.30;;;;;;;;;;6363147;22;20021;-79
2023/12/24 06:37:37;;;;;;;9.52;3.25;;;;;;;;;;6391846;22;20010;-78
2023/12/24 06:40:03;;;;;;;8.13;2.20;;;;;;;;;;6389939;22;20010;-79
2023/12/24 06:42:29;;;;;;;8.35;2.58;;;;;;;;;;6391970;22;20348;-79
2023/12/24 06:44:54;;;;;;;4.43;1.98;;;;;;;;;;6362770;22;20073;-79
2023/12/24 06:47:20;;;;;;;7.68;2.45;;;;;;;;;;6364121;22;20398;-78
2023/12/24 06:49:46;;;;;;;10.77;3.25;;;;;;;;;;6364345;22;20411;-78
2023/12/24 06:52:11;;;;;;;8.18;2.55;;;;;;;;;;6391945;22;20018;-78
2023/12/24 06:54:37;;;;;;;8.10;2.20;;;;;;;;;;6366459;22;20455;-78
2023/12/24 06:57:03;;;;;;;9.38;2.67;;;;;;;;;;6368192;22;20002;-78
2023/12/24 06:59:29;;;;;;;6.50;2.53;;;;;;;;;;6377648;22;20065;-78
2023/12/24 07:01:54;;;;;;;4.72;1.95;;;;;;;;;;6412002;22;20066;-79
2023/12/24 07:04:19;;;;;;;11.88;3.17;;;;;;;;;;6370625;22;20034;-79
2023/12/24 07:06:45;;;;;;;15.07;4.10;;;;;;;;;;6391008;22;20206;-78
2023/12/24 07:09:11;;;;;;;9.65;3.17;;;;;;;;;;6362622;22;20085;-78
2023/12/24 07:11:36;;;;;;;10.85;3.53;;;;;;;;;;6391585;22;20459;-79
2023/12/24 07:14:01;;;;;;;14.63;3.00;;;;;;;;;;6361905;22;20177;-79
2023/12/24 07:16:27;;;;;;;12.48;3.92;;;;;;;;;;6390621;22;20021;-78
2023/12/24 07:18:52;;;;;;;3.30;1.77;;;;;;;;;;6390474;22;20025;-79
2023/12/24 07:21:17;;;;;;;9.50;3.00;;;;;;;;;;6390690;22;20010;-79
2023/12/24 07:23:43;;;;;;;10.77;3.25;;;;;;;;;;6390387;22;20446;-79
2023/12/24 07:26:08;;;;;;;16.17;4.10;;;;;;;;;;6362041;22;20017;-79
2023/12/24 07:28:34;;;;;;;17.77;4.38;;;;;;;;;;6362175;22;20462;-79
2023/12/24 07:31:00;;;;;;;7.10;3.38;;;;;;;;;;6388789;22;20013;-78
2023/12/24 07:33:25;;;;;;;15.63;4.53;;;;;;;;;;6390140;22;20020;-78
2023/12/24 07:35:51;;;;;;;10.05;3.40;;;;;;;;;;6363052;22;20085;-79
2023/12/24 07:38:16;;;;;;;10.23;3.15;;;;;;;;;;6392033;22;20006;-79
2023/12/24 07:40:41;;;;;;;16.70;3.67;;;;;;;;;;6396271;22;20127;-79
2023/12/24 07:43:07;;;;;;;11.25;3.53;;;;;;;;;;6376105;22;20050;-79
2023/12/24 07:45:32;;;;;;;10.18;4.00;;;;;;;;;;6369886;22;20117;-79
2023/12/24 07:47:58;;;;;;;14.68;3.55;;;;;;;;;;6361101;22;20520;-79
2023/12/24 07:50:23;;;;;;;11.60;3.30;;;;;;;;;;6390785;22;20100;-79
2023/12/24 07:52:48;;;;;;;9.25;2.97;;;;;;;;;;6393682;22;20025;-79
2023/12/24 07:55:14;;;;;;;9.98;2.83;;;;;;;;;;6365458;22;20006;-79
2023/12/24 07:57:39;;;;;;;15.10;2.78;;;;;;;;;;6392997;22;20037;-79
2023/12/24 08:00:06;;;;;;;9.88;3.25;;;;;;;;;;6389706;22;20445;-80
2023/12/24 08:02:32;;;;;;;7.45;3.28;;;;;;;;;;6393790;22;19994;-80
2023/12/24 08:04:58;;;;;;;6.10;2.38;;;;;;;;;;6393522;22;20014;-80
2023/12/24 08:07:23;;;;;;;11.32;3.63;;;;;;;;;;6392060;22;20032;-79
2023/12/24 08:09:49;;;;;;;6.60;2.50;;;;;;;;;;6391135;22;20660;-78
2023/12/24 08:12:15;;;;;;;7.47;2.70;;;;;;;;;;6365501;22;20006;-78
2023/12/24 08:14:40;;;;;;;8.73;3.35;;;;;;;;;;6392549;22;20058;-79
2023/12/24 08:17:06;;;;;;;10.63;3.03;;;;;;;;;;6394240;22;20009;-79
2023/12/24 08:19:31;;;;;;;9.55;2.97;;;;;;;;;;6366009;22;20009;-79
2023/12/24 08:21:57;;;;;;;7.15;2.97;;;;;;;;;;6365510;22;20029;-79
2023/12/24 08:24:22;;;;;;;4.60;2.38;;;;;;;;;;6394817;22;20006;-77
2023/12/24 08:26:48;;;;;;;5.75;2.33;;;;;;;;;;6391997;22;20005;-78
2023/12/24 08:29:14;;;;;;;8.18;2.50;;;;;;;;;;6390326;22;20365;-75
2023/12/24 08:31:39;;;;;;;14.93;3.10;;;;;;;;;;6391809;22;20028;-74
2023/12/24 08:34:05;;;;;;;6.55;1.58;;;;;;;;;;6393544;22;20042;-77
2023/12/24 08:36:30;;;;;;;7.50;2.97;;;;;;;;;;6387508;22;20085;-77
2023/12/24 08:38:55;;;;;;;7.97;2.55;;;;;;;;;;6360837;22;20059;-78
2023/12/24 08:41:21;;;;;;;6.30;2.20;;;;;;;;;;6391426;22;20093;-77
2023/12/24 08:43:46;;;;;;;5.60;1.85;;;;;;;;;;6363290;22;20013;-78
2023/12/24 08:46:11;;;;;;;6.43;2.65;;;;;;;;;;6394856;22;20025;-78
2023/12/24 08:48:37;;;;;;;4.82;2.25;;;;;;;;;;6365499;22;20017;-78
2023/12/24 08:51:03;;;;;;;5.63;2.63;;;;;;;;;;6393939;22;20126;-78
2023/12/24 08:53:29;;;;;;;7.03;2.00;;;;;;;;;;6366693;22;19997;-78
2023/12/24 08:55:54;;;;;;;10.95;3.30;;;;;;;;;;6366404;22;20016;-77
2023/12/24 08:58:20;;;;;;;5.95;2.45;;;;;;;;;;6368820;22;20010;-77
2023/12/24 09:00:45;;;;;;;8.50;3.42;;;;;;;;;;6378683;22;20022;-78
2023/12/24 09:03:11;;;;;;;6.95;3.38;;;;;;;;;;6412596;22;20013;-78
2023/12/24 09:05:37;;;;;;;8.43;3.28;;;;;;;;;;6395086;22;20345;-77
2023/12/24 09:08:03;;;;;;;10.15;3.17;;;;;;;;;;6359633;22;20452;-77
2023/12/24 09:10:28;;;;;;;7.22;2.72;;;;;;;;;;6360358;22;20010;-78
2023/12/24 09:12:54;;;;;;;10.57;3.78;;;;;;;;;;6389705;22;20133;-77
2023/12/24 09:15:19;;;;;;;9.60;2.80;;;;;;;;;;6389368;22;20674;-77
2023/12/24 09:17:45;;;;;;;7.82;3.15;;;;;;;;;;6391260;22;20007;-77
2023/12/24 09:20:10;;;;;;;6.07;2.85;;;;;;;;;;6390320;22;20083;-77
2023/12/24 09:22:36;;;;;;;6.80;2.53;;;;;;;;;;6362704;22;20346;-77
2023/12/24 09:25:01;;;;;;;9.07;3.33;;;;;;;;;;6362664;22;20018;-77
2023/12/24 09:27:27;;;;;;;10.45;2.60;;;;;;;;;;6391044;22;20014;-77
2023/12/24 09:29:52;;;;;;;5.70;2.33;;;;;;;;;;6390996;22;20135;-77
2023/12/24 09:32:17;;;;;;;8.40;2.63;;;;;;;;;;6391838;22;19994;-77
2023/12/24 09:34:44;;;;;;;10.10;2.75;;;;;;;;;;6390130;22;20020;-77
2023/12/24 09:37:11;;;;;;;8.93;3.08;;;;;;;;;;6390261;22;20067;-78
2023/12/24 09:39:36;;;;;;;5.82;2.38;;;;;;;;;;6389873;22;20669;-78
2023/12/24 09:42:02;;;;;;;6.90;2.70;;;;;;;;;;6388329;22;20000;-79
2023/12/24 09:44:27;;;;;;;4.35;2.20;;;;;;;;;;6359264;22;20002;-78
2023/12/24 09:46:53;;;;;;;6.45;3.25;;;;;;;;;;6388425;22;20092;-79
2023/12/24 09:49:18;;;;;;;4.57;2.38;;;;;;;;;;6389750;22;20032;-79
2023/12/24 09:51:43;;;;;;;6.15;2.60;;;;;;;;;;6388513;22;20065;-78
2023/12/24 09:54:09;;;;;;;7.18;3.03;;;;;;;;;;6361167;22;20085;-79
2023/12/24 09:56:35;;;;;;;5.65;2.60;;;;;;;;;;6389792;22;19998;-79
2023/12/24 09:59:00;;;;;;;9.02;2.97;;;;;;;;;;6391363;22;20012;-79
2023/12/24 10:01:25;;;;;;;6.75;2.20;;;;;;;;;;6363198;22;20022;-78
2023/12/24 10:03:51;;;;;;;4.43;2.13;;;;;;;;;;6363366;22;20096;-78
2023/12/24 10:06:17;;;;;;;6.13;2.53;;;;;;;;;;6390621;22;20110;-79
2023/12/24 10:08:43;;;;;;;10.25;3.00;;;;;;;;;;6363522;22;20556;-78
2023/12/24 10:11:16;;;;;;;5.45;2.00;;;;;;;;;;6361082;22;20013;-78
2023/12/24 10:13:43;;;;;;;7.18;2.67;;;;;;;;;;6363069;22;20452;-78
2023/12/24 10:16:09;;;;;;;5.25;2.35;;;;;;;;;;6392704;22;20028;-79
2023/12/24 10:18:35;;;;;;;4.40;2.28;;;;;;;;;;6399778;22;20032;-79
2023/12/24 10:21:09;;;;;;;3.47;1.95;;;;;;;;;;6367286;22;20085;-79
2023/12/24 10:23:35;;;;;;;5.22;2.55;;;;;;;;;;6364439;22;19998;-77
2023/12/24 10:26:06;;;;;;;4.60;2.20;;;;;;;;;;6390724;22;20501;-77
2023/12/24 10:28:33;;;;;;;9.38;2.05;;;;;;;;;;6362825;22;20010;-77
2023/12/24 10:31:09;;;;;;;3.65;2.00;;;;;;;;;;6388928;22;20020;-76
2023/12/24 10:33:41;;;;;;;5.03;2.38;;;;;;;;;;6391040;22;20016;-77
2023/12/24 10:36:07;;;;;;;5.70;2.60;;;;;;;;;;6364459;22;20422;-77
2023/12/24 10:38:34;;;;;;;4.70;1.90;;;;;;;;;;6392490;22;20001;-74
2023/12/24 10:41:00;;;;;;;2.15;1.77;;;;;;;;;;6364513;22;20041;-77
2023/12/24 10:43:25;;;;;;;3.35;1.80;;;;;;;;;;6394611;22;20009;-77
2023/12/24 10:45:50;;;;;;;5.60;2.65;;;;;;;;;;6402124;22;20029;-76
2023/12/24 10:48:16;;;;;;;3.15;1.65;;;;;;;;;;6378399;22;20012;-78
2023/12/24 10:50:41;;;;;;;3.55;1.90;;;;;;;;;;6396729;22;20082;-76
2023/12/24 10:53:07;;;;;;;5.75;1.60;;;;;;;;;;6390477;22;20045;-76
2023/12/24 10:55:35;;;;;;;4.55;2.20;;;;;;;;;;6390543;22;20488;-76
2023/12/24 10:58:20;;;;;;;13.00;2.45;;;;;;;;;;6388779;22;20014;-76
2023/12/24 11:00:45;;;;;;;5.25;2.08;;;;;;;;;;6392672;22;20033;-76
2023/12/24 11:03:11;;;;;;;5.55;2.22;;;;;;;;;;6390269;22;20018;-77
2023/12/24 11:05:39;;;;;;;4.90;2.47;;;;;;;;;;6362324;22;19997;-77
2023/12/24 11:08:05;;;;;;;4.43;1.98;;;;;;;;;;6360672;22;20811;-78
2023/12/24 11:10:42;;;;;;;3.72;1.95;;;;;;;;;;6389543;22;20013;-77
2023/12/24 11:13:36;;;;;;;7.43;2.97;;;;;;;;;;6389103;22;20121;-78
2023/12/24 11:16:04;;;;;;;6.95;2.83;;;;;;;;;;6347619;22;20414;-77
2023/12/24 11:18:46;;;;;;;6.95;2.67;;;;;;;;;;6389784;22;20036;-78
2023/12/24 11:21:16;;;;;;;5.90;2.72;;;;;;;;;;6387039;22;20104;-78
2023/12/24 11:24:02;;;;;;;3.45;1.88;;;;;;;;;;6361324;22;20005;-78
2023/12/24 11:26:29;;;;;;;4.88;2.60;;;;;;;;;;6389618;22;20014;-78
2023/12/24 11:29:14;;;;;;;5.07;2.25;;;;;;;;;;6361758;22;20016;-78
2023/12/24 11:31:40;;;;;;;6.30;3.55;;;;;;;;;;6386581;22;20013;-78
2023/12/24 11:34:05;;;;;;;4.38;2.35;;;;;;;;;;6363430;22;20496;-78
2023/12/24 11:36:30;;;;;;;4.25;2.45;;;;;;;;;;6371433;22;20047;-78
2023/12/24 11:38:57;;;;;;;6.43;3.00;;;;;;;;;;6380879;22;20011;-78
2023/12/24 11:41:23;;;;;;;7.93;3.55;;;;;;;;;;6404403;22;19998;-78
2023/12/24 11:43:57;;;;;;;7.40;3.53;;;;;;;;;;6364588;22;20060;-78
2023/12/24 11:46:24;;;;;;;6.63;3.15;;;;;;;;;;6362560;22;20014;-78
2023/12/24 11:48:50;;;;;;;6.95;4.00;;;;;;;;;;6389532;22;20807;-77
2023/12/24 11:51:15;;;;;;;14.95;3.20;;;;;;;;;;6361137;22;20009;-78
2023/12/24 11:53:42;;;;;;;11.70;3.92;;;;;;;;;;6362011;22;19994;-77
2023/12/24 11:56:09;;;;;;;10.20;3.42;;;;;;;;;;6359986;22;20014;-78
2023/12/24 11:58:35;;;;;;;10.90;4.47;;;;;;;;;;6357961;22;20044;-78
2023/12/24 12:01:04;;;;;;;13.60;4.22;;;;;;;;;;6360671;22;20334;-79
2023/12/24 12:03:34;;;;;;;5.78;2.88;;;;;;;;;;6392516;22;20018;-76
2023/12/24 12:06:00;;;;;;;12.45;4.20;;;;;;;;;;6388544;22;20360;-76
2023/12/24 12:08:28;;;;;;;8.85;3.88;;;;;;;;;;6362415;22;20077;-83
2023/12/24 12:10:54;;;;;;;9.13;3.28;;;;;;;;;;6360447;22;20010;-76
2023/12/24 12:13:19;;;;;;;9.52;3.70;;;;;;;;;;6389530;22;20018;-76
2023/12/24 12:15:45;;;;;;;9.00;4.20;;;;;;;;;;6359571;22;20067;-76
2023/12/24 12:18:11;;;;;;;11.73;3.95;;;;;;;;;;6360732;22;20021;-76
2023/12/24 12:20:36;;;;;;;11.80;4.13;;;;;;;;;;6388061;22;20002;-75
2023/12/24 12:23:02;;;;;;;9.52;3.42;;;;;;;;;;6358941;22;20021;-76
2023/12/24 12:25:28;;;;;;;12.38;4.30;;;;;;;;;;6388893;22;20014;-76
2023/12/24 12:27:53;;;;;;;5.18;2.97;;;;;;;;;;6389058;22;20009;-77
2023/12/24 12:30:22;;;;;;;8.55;2.83;;;;;;;;;;6360074;22;20009;-76
2023/12/24 12:32:51;;;;;;;9.27;3.55;;;;;;;;;;6388579;22;20009;-76
2023/12/24 12:35:16;;;;;;;3.90;2.10;;;;;;;;;;6388260;22;20018;-76
2023/12/24 12:37:42;;;;;;;7.75;2.80;;;;;;;;;;6362235;22;20014;-74
2023/12/24 12:40:08;;;;;;;13.55;3.95;;;;;;;;;;6389815;22;20082;-77
2023/12/24 12:42:34;;;;;;;7.88;3.60;;;;;;;;;;6390493;22;20005;-77
2023/12/24 12:44:59;;;;;;;8.73;3.58;;;;;;;;;;6388883;22;20460;-76
2023/12/24 12:47:25;;;;;;;7.97;3.40;;;;;;;;;;6392285;22;20025;-77
2023/12/24 12:49:50;;;;;;;8.10;3.05;;;;;;;;;;6362093;22;20070;-78
2023/12/24 12:52:16;;;;;;;6.22;2.92;;;;;;;;;;6364256;22;20010;-76
2023/12/24 12:54:42;;;;;;;8.93;3.80;;;;;;;;;;6368603;22;20063;-75
2023/12/24 12:57:07;;;;;;;3.88;2.42;;;;;;;;;;6375284;22;19997;-75
2023/12/24 12:59:33;;;;;;;6.35;3.13;;;;;;;;;;6398132;22;20004;-75
2023/12/24 13:01:59;;;;;;;4.82;2.40;;;;;;;;;;6390879;22;20018;-75
2023/12/24 13:04:26;;;;;;;4.93;2.28;;;;;;;;;;6390811;22;20013;-75
2023/12/24 13:06:52;;;;;;;6.43;2.65;;;;;;;;;;6389542;22;20014;-76
2023/12/24 13:09:21;;;;;;;3.80;2.10;;;;;;;;;;6358686;22;20005;-76
2023/12/24 13:11:49;;;;;;;7.85;2.47;;;;;;;;;;6385628;22;20073;-76
2023/12/24 13:14:17;;;;;;;6.97;1.80;;;;;;;;;;6362125;22;20006;-76
2023/12/24 13:16:43;;;;;;;7.45;2.55;;;;;;;;;;6391438;22;20080;-76
2023/12/24 13:19:21;;;;;;;5.07;1.70;;;;;;;;;;6389951;22;20018;-76
2023/12/24 13:21:47;;;;;;;5.63;2.08;;;;;;;;;;6391517;22;20045;-76
2023/12/24 13:24:12;;;;;;;8.32;2.30;;;;;;;;;;6362276;22;20334;-76
2023/12/24 13:26:38;;;;;;;6.68;3.30;;;;;;;;;;6391217;22;20001;-76
2023/12/24 13:29:04;;;;;;;8.85;3.40;;;;;;;;;;6363514;22;20038;-78
2023/12/24 13:31:30;;;;;;;5.18;2.53;;;;;;;;;;6389095;22;20033;-77
2023/12/24 13:33:55;;;;;;;7.03;2.83;;;;;;;;;;6391302;22;20464;-76
2023/12/24 13:36:21;;;;;;;7.18;2.60;;;;;;;;;;6391973;22;20570;-76
2023/12/24 13:38:46;;;;;;;7.15;3.10;;;;;;;;;;6360231;22;19997;-76
2023/12/24 13:41:13;;;;;;;6.90;3.33;;;;;;;;;;6360328;22;20041;-76
2023/12/24 13:43:39;;;;;;;7.43;3.28;;;;;;;;;;6391600;22;20029;-76
2023/12/24 13:46:05;;;;;;;8.18;3.28;;;;;;;;;;6363612;22;20383;-77
2023/12/24 13:48:30;;;;;;;10.23;4.00;;;;;;;;;;6362598;22;20089;-76
2023/12/24 13:50:56;;;;;;;9.85;3.70;;;;;;;;;;6391373;22;19994;-76
2023/12/24 13:53:21;;;;;;;9.27;3.42;;;;;;;;;;6363920;22;20414;-76
2023/12/24 13:55:47;;;;;;;11.73;4.50;;;;;;;;;;6390280;22;20034;-76
2023/12/24 13:58:12;;;;;;;12.02;4.30;;;;;;;;;;6389226;22;20021;-76
2023/12/24 14:00:39;;;;;;;9.52;3.53;;;;;;;;;;6390612;22;20018;-77
2023/12/24 14:03:04;;;;;;;11.82;4.97;;;;;;;;;;6391253;22;20008;-76
2023/12/24 14:05:30;;;;;;;10.45;4.88;;;;;;;;;;6389844;22;20006;-76
2023/12/24 14:07:55;;;;;;;10.90;4.82;;;;;;;;;;6363519;22;20028;-76
2023/12/24 14:10:21;;;;;;;12.20;5.78;;;;;;;;;;6363633;22;20133;-76
2023/12/24 14:12:47;;;;;;;10.35;4.75;;;;;;;;;;6398666;22;20101;-76
2023/12/24 14:15:13;;;;;;;16.48;5.32;;;;;;;;;;6406976;22;20058;-75
2023/12/24 14:17:39;;;;;;;12.15;5.22;;;;;;;;;;6408274;22;20445;-76
2023/12/24 14:20:12;;;;;;;11.45;5.88;;;;;;;;;;6396283;22;20021;-76
2023/12/24 14:22:38;;;;;;;15.67;5.37;;;;;;;;;;6396914;22;20082;-76
2023/12/24 14:25:04;;;;;;;14.57;5.68;;;;;;;;;;6382205;22;20244;-76
2023/12/24 14:27:33;;;;;;;12.77;5.25;;;;;;;;;;6375068;22;20021;-75
2023/12/24 14:29:59;;;;;;;21.13;5.72;;;;;;;;;;6363345;22;20006;-76
2023/12/24 14:32:27;;;;;;;13.18;4.82;;;;;;;;;;6364609;22;20088;-75
2023/12/24 14:34:53;;;;;;;17.70;5.82;;;;;;;;;;6390823;22;20033;-76